createdAt,value
2022-11-23T00:04:45.458Z,7.99
2022-11-23T00:09:46.794Z,7.99
2022-11-23T00:14:48.125Z,8.02
2022-11-23T00:19:49.394Z,8.07
2022-11-23T00:24:50.869Z,8.08
2022-11-23T00:29:52.229Z,8.04
2022-11-23T00:34:53.563Z,7.99
2022-11-23T00:39:54.879Z,7.92
2022-11-23T00:44:56.149Z,7.96
2022-11-23T00:49:57.522Z,7.99
2022-11-23T00:54:58.839Z,8.04
2022-11-23T01:00:00.970Z,8.05
2022-11-23T01:05:03.472Z,8.07
2022-11-23T01:10:05.213Z,7.96
2022-11-23T01:15:07.080Z,7.92
2022-11-23T01:20:09.254Z,7.99
2022-11-23T01:25:10.560Z,8.02
2022-11-23T01:30:12.266Z,8.09
2022-11-23T01:35:13.600Z,8.12
2022-11-23T01:40:15.118Z,8.13
2022-11-23T01:45:36.690Z,8.06
2022-11-23T01:50:38.581Z,8.00
2022-11-23T01:55:40.233Z,8.04
2022-11-23T02:00:42.323Z,8.04
2022-11-23T02:05:48.402Z,7.96
2022-11-23T02:10:49.829Z,8.01
2022-11-23T02:15:52.320Z,8.10
2022-11-23T02:20:53.979Z,8.10
2022-11-23T02:26:00.213Z,8.02
2022-11-23T02:31:02.508Z,7.96
2022-11-23T02:36:38.409Z,7.98
2022-11-23T02:41:51.648Z,8.12
2022-11-23T02:46:53.884Z,8.13
2022-11-23T02:51:55.384Z,8.18
2022-11-23T02:56:56.685Z,8.22
2022-11-23T03:01:59.120Z,8.20
2022-11-23T03:07:00.629Z,8.18
2022-11-23T03:12:01.983Z,8.22
2022-11-23T03:17:03.272Z,8.25
2022-11-23T03:22:04.709Z,8.28
2022-11-23T03:27:06.045Z,8.30
2022-11-23T03:32:07.409Z,8.34
2022-11-23T03:37:08.760Z,8.35
2022-11-23T03:42:10.027Z,8.18
2022-11-23T03:47:12.022Z,8.09
2022-11-23T03:52:13.730Z,8.11
2022-11-23T03:57:15.119Z,8.16
2022-11-23T04:02:16.386Z,8.22
2022-11-23T04:07:17.803Z,8.12
2022-11-23T04:12:19.328Z,8.14
2022-11-23T04:17:20.711Z,8.17
2022-11-23T04:22:22.009Z,8.09
2022-11-23T04:27:23.411Z,8.07
2022-11-23T04:32:24.755Z,8.09
2022-11-23T04:37:26.094Z,8.25
2022-11-23T04:42:27.436Z,8.25
2022-11-23T04:47:28.802Z,8.24
2022-11-23T04:52:30.209Z,8.14
2022-11-23T04:57:31.543Z,8.21
2022-11-23T05:02:32.926Z,8.17
2022-11-23T05:07:34.497Z,8.16
2022-11-23T05:12:36.516Z,8.21
2022-11-23T05:17:37.817Z,8.22
2022-11-23T05:22:39.237Z,8.19
2022-11-23T05:27:40.569Z,8.27
2022-11-23T05:32:41.928Z,8.29
2022-11-23T05:37:43.316Z,8.28
2022-11-23T05:42:44.633Z,8.31
2022-11-23T05:47:50.633Z,8.37
2022-11-23T05:52:52.110Z,8.32
2022-11-23T05:57:53.684Z,8.37
2022-11-23T06:03:00.254Z,8.35
2022-11-23T06:08:01.580Z,8.36
2022-11-23T06:13:04.708Z,8.33
2022-11-23T06:18:06.104Z,8.38
2022-11-23T06:23:07.416Z,8.31
2022-11-23T06:28:08.812Z,8.39
2022-11-23T06:33:10.552Z,8.34
2022-11-23T06:38:11.872Z,8.29
2022-11-23T06:43:13.296Z,8.31
2022-11-23T06:48:14.686Z,8.26
2022-11-23T06:53:16.203Z,8.15
2022-11-23T06:58:17.605Z,8.21
2022-11-23T07:03:24.041Z,8.26
2022-11-23T07:08:25.558Z,8.30
2022-11-23T07:13:26.912Z,8.30
2022-11-23T07:18:28.634Z,8.34
2022-11-23T07:23:29.994Z,8.40
2022-11-23T07:28:31.290Z,8.40
2022-11-23T07:33:32.725Z,8.37
2022-11-23T07:38:34.138Z,8.36
2022-11-23T07:43:35.608Z,8.35
2022-11-23T07:48:36.964Z,8.39
2022-11-23T07:53:38.363Z,8.53
2022-11-23T07:58:39.729Z,8.64
2022-11-23T08:03:41.234Z,8.46
2022-11-23T08:08:42.686Z,8.44
2022-11-23T08:13:44.741Z,8.43
2022-11-23T08:18:46.093Z,8.55
2022-11-23T08:23:47.600Z,8.53
2022-11-23T08:28:49.250Z,8.57
2022-11-23T08:33:51.055Z,8.55
2022-11-23T08:38:52.829Z,8.71
2022-11-23T08:43:54.150Z,8.79
2022-11-23T08:48:55.468Z,8.88
2022-11-23T08:53:56.805Z,9.07
2022-11-23T08:58:58.157Z,9.18
2022-11-23T09:03:59.513Z,9.20
2022-11-23T09:09:01.703Z,9.23
2022-11-23T09:14:03.122Z,9.14
2022-11-23T09:19:06.039Z,9.16
2022-11-23T09:24:07.720Z,9.34
2022-11-23T09:29:09.488Z,9.45
2022-11-23T09:34:13.988Z,9.58
2022-11-23T09:39:15.454Z,9.80
2022-11-23T09:44:55.672Z,10.16
2022-11-23T09:50:23.062Z,10.58
2022-11-23T09:55:37.617Z,10.92
2022-11-23T10:00:46.294Z,11.46
2022-11-23T10:06:01.854Z,11.99
2022-11-23T10:11:43.777Z,11.45
2022-11-23T10:17:11.597Z,11.61
2022-11-23T10:22:22.474Z,13.60
2022-11-23T10:27:25.092Z,18.51
2022-11-23T10:32:33.917Z,20.13
2022-11-23T10:37:35.365Z,22.28
2022-11-23T10:42:43.360Z,23.07
2022-11-23T10:47:58.723Z,23.41
2022-11-23T10:53:25.969Z,24.38
2022-11-23T10:58:31.219Z,25.15
2022-11-23T11:03:34.550Z,25.71
2022-11-23T11:08:53.980Z,25.53
2022-11-23T11:14:13.984Z,25.94
2022-11-23T11:19:28.259Z,25.94
2022-11-23T11:24:47.004Z,27.40
2022-11-23T11:29:51.412Z,27.24
2022-11-23T11:34:59.072Z,26.86
2022-11-23T11:40:19.035Z,27.68
2022-11-23T11:45:25.001Z,29.53
2022-11-23T11:50:32.233Z,28.07
2022-11-23T11:55:50.916Z,28.61
2022-11-23T12:01:06.704Z,28.46
2022-11-23T12:06:26.475Z,28.00
2022-11-23T12:11:28.112Z,29.04
2022-11-23T12:17:10.301Z,29.72
2022-11-23T12:22:48.631Z,30.79
2022-11-23T12:28:23.093Z,30.76
2022-11-23T12:34:00.798Z,29.67
2022-11-23T12:39:20.045Z,30.17
2022-11-23T12:44:40.274Z,29.77
2022-11-23T12:49:57.007Z,29.74
2022-11-23T12:55:36.131Z,31.27
2022-11-23T13:00:53.088Z,32.15
2022-11-23T13:06:03.610Z,31.76
2022-11-23T13:11:26.616Z,30.77
2022-11-23T13:17:01.946Z,31.72
2022-11-23T13:22:10.027Z,30.11
2022-11-23T13:27:14.436Z,29.50
2022-11-23T13:32:42.803Z,28.08
2022-11-23T13:37:56.372Z,21.96
2022-11-23T13:43:02.192Z,19.05
2022-11-23T13:48:19.346Z,17.87
2022-11-23T13:53:36.608Z,16.65
2022-11-23T13:58:39.632Z,15.66
2022-11-23T14:03:49.003Z,15.23
2022-11-23T14:09:02.917Z,14.84
2022-11-23T14:14:14.427Z,14.19
2022-11-23T14:19:46.505Z,13.70
2022-11-23T14:25:23.696Z,13.48
2022-11-23T14:30:38.946Z,13.39
2022-11-23T14:36:13.163Z,13.31
2022-11-23T14:41:25.956Z,13.14
2022-11-23T14:46:27.400Z,12.95
2022-11-23T14:51:28.845Z,12.79
2022-11-23T14:56:34.016Z,12.37
2022-11-23T15:01:36.983Z,12.06
2022-11-23T15:06:46.375Z,11.95
2022-11-23T15:11:49.028Z,11.84
2022-11-23T15:16:50.582Z,11.59
2022-11-23T15:21:52.265Z,11.52
2022-11-23T15:27:06.480Z,11.45
2022-11-23T15:32:31.943Z,11.30
2022-11-23T15:37:42.657Z,11.21
2022-11-23T15:42:46.733Z,11.08
2022-11-23T15:47:48.091Z,11.07
2022-11-23T15:52:49.378Z,10.89
2022-11-23T15:57:56.032Z,10.82
2022-11-23T16:03:20.759Z,10.69
2022-11-23T16:08:25.611Z,10.60
2022-11-23T16:13:38.588Z,10.57
2022-11-23T16:18:45.167Z,10.60
2022-11-23T16:23:51.408Z,10.55
2022-11-23T16:28:58.186Z,10.54
2022-11-23T16:33:59.682Z,10.54
2022-11-23T16:39:05.362Z,10.46
2022-11-23T16:44:07.416Z,10.45
2022-11-23T16:49:17.734Z,10.40
2022-11-23T16:54:24.408Z,10.43
2022-11-23T16:59:26.059Z,10.43
2022-11-23T17:04:27.372Z,10.50
2022-11-23T17:09:28.736Z,10.40
2022-11-23T17:14:36.814Z,10.35
2022-11-23T17:19:38.277Z,10.36
2022-11-23T17:24:39.557Z,10.42
2022-11-23T17:29:42.649Z,10.38
2022-11-23T17:34:44.125Z,10.41
2022-11-23T17:39:46.776Z,10.42
2022-11-23T17:44:48.240Z,10.34
2022-11-23T17:49:49.500Z,10.41
2022-11-23T17:54:51.536Z,10.35
2022-11-23T17:59:54.331Z,10.26
2022-11-23T18:04:56.061Z,9.98
2022-11-23T18:09:57.412Z,9.91
2022-11-23T18:14:58.677Z,9.66
2022-11-23T18:19:59.956Z,9.45
2022-11-23T18:25:01.269Z,9.34
2022-11-23T18:30:02.560Z,9.31
2022-11-23T18:35:05.062Z,9.24
2022-11-23T18:40:06.964Z,9.25
2022-11-23T18:45:08.772Z,9.27
2022-11-23T18:50:10.196Z,9.32
2022-11-23T18:55:11.812Z,9.13
2022-11-23T19:00:16.361Z,9.14
2022-11-23T19:05:17.728Z,9.19
2022-11-23T19:10:19.699Z,9.24
2022-11-23T19:15:21.172Z,9.28
2022-11-23T19:20:23.598Z,9.26
2022-11-23T19:25:24.933Z,9.19
2022-11-23T19:30:26.204Z,9.15
2022-11-23T19:35:27.793Z,9.23
2022-11-23T19:40:29.502Z,9.10
2022-11-23T19:45:30.874Z,9.08
2022-11-23T19:50:32.156Z,9.09
2022-11-23T19:55:33.437Z,9.13
2022-11-23T20:00:37.068Z,9.10
2022-11-23T20:05:38.624Z,9.17
2022-11-23T20:10:40.105Z,9.23
2022-11-23T20:15:44.730Z,9.26
2022-11-23T20:20:47.454Z,9.27
2022-11-23T20:25:48.925Z,9.19
2022-11-23T20:30:50.939Z,9.10
2022-11-23T20:35:52.534Z,9.06
2022-11-23T20:40:53.801Z,9.03
2022-11-23T20:45:58.320Z,8.92
2022-11-23T20:50:59.716Z,8.90
2022-11-23T20:56:08.006Z,8.89
2022-11-23T21:01:15.753Z,8.71
2022-11-23T21:06:17.681Z,8.76
2022-11-23T21:11:41.731Z,8.62
2022-11-23T21:16:52.988Z,8.43
2022-11-23T21:21:55.796Z,8.22
2022-11-23T21:26:57.150Z,8.06
2022-11-23T21:31:58.775Z,8.00
2022-11-23T21:37:00.254Z,7.89
2022-11-23T21:42:01.731Z,7.88
2022-11-23T21:47:03.159Z,7.84
2022-11-23T21:52:04.604Z,7.71
2022-11-23T21:57:05.944Z,7.76
2022-11-23T22:02:12.171Z,7.71
2022-11-23T22:07:13.512Z,7.68
2022-11-23T22:12:14.868Z,7.61
2022-11-23T22:17:16.198Z,7.66
2022-11-23T22:22:17.460Z,7.69
2022-11-23T22:27:19.499Z,7.66
2022-11-23T22:32:20.742Z,7.67
2022-11-23T22:37:22.001Z,7.67
2022-11-23T22:42:23.322Z,7.58
2022-11-23T22:47:25.283Z,7.64
2022-11-23T22:52:26.531Z,7.69
2022-11-23T22:57:27.817Z,7.70
2022-11-23T23:02:29.961Z,7.75
2022-11-23T23:07:31.365Z,7.83
2022-11-23T23:12:32.794Z,7.78
2022-11-23T23:17:34.080Z,7.70
2022-11-23T23:22:35.337Z,7.75
2022-11-23T23:27:36.590Z,7.78
2022-11-23T23:32:37.896Z,7.89
2022-11-23T23:37:39.203Z,7.87
2022-11-23T23:42:40.501Z,7.88
2022-11-23T23:47:41.768Z,7.84
2022-11-23T23:52:43.119Z,7.85
2022-11-23T23:57:44.391Z,7.72
